Time;durP1;ratioP1;P1;durP2;ratioP2;P2;SDS_P1;SDS_P2;PMS_P1;PMS_P2;Temp;Humidity;BMP_temperature;BMP_pressure;BME280_temperature;BME280_humidity;BME280_pressure;Samples;Min_cycle;Max_cycle;Signal;HPM_P1;HPM_P2
2021/01/30 00:00:38;;;;;;;0.95;0.10;;;2.70;99.90;;;;;;5033760;28;20104;-76
2021/01/30 00:03:05;;;;;;;2.75;0.52;;;2.60;99.90;;;;;;5033794;28;20025;-76
2021/01/30 00:05:32;;;;;;;2.20;0.13;;;2.70;99.90;;;;;;5033029;28;20510;-76
2021/01/30 00:07:58;;;;;;;4.47;0.75;;;2.60;99.90;;;;;;5034132;28;20017;-76
2021/01/30 00:10:25;;;;;;;3.03;0.40;;;2.60;99.90;;;;;;5034077;28;20022;-76
2021/01/30 00:12:51;;;;;;;3.47;0.10;;;2.70;99.90;;;;;;5033963;28;20068;-76
2021/01/30 00:15:20;;;;;;;3.58;0.10;;;2.70;99.90;;;;;;5033966;28;20029;-76
2021/01/30 00:17:47;;;;;;;4.38;0.20;;;2.60;99.90;;;;;;5032698;28;20426;-76
2021/01/30 00:20:15;;;;;;;2.05;0.08;;;2.60;99.90;;;;;;5032739;28;20025;-76
2021/01/30 00:22:40;;;;;;;0.77;0.10;;;2.60;99.90;;;;;;5037115;28;20029;-76
2021/01/30 00:25:07;;;;;;;1.33;0.10;;;2.60;99.90;;;;;;5038193;28;20021;-76
2021/01/30 00:27:32;;;;;;;3.15;0.10;;;3.00;99.90;;;;;;5036764;28;20029;-75
2021/01/30 00:29:58;;;;;;;2.28;0.52;;;2.60;99.90;;;;;;5036711;28;20025;-76
2021/01/30 00:32:24;;;;;;;0.80;0.10;;;2.60;99.90;;;;;;5038051;28;20018;-76
2021/01/30 00:34:49;;;;;;;0.93;0.10;;;2.50;99.90;;;;;;5038647;28;20032;-76
2021/01/30 00:37:22;;;;;;;2.70;0.55;;;2.50;99.90;;;;;;5038065;28;20014;-76
2021/01/30 00:39:49;;;;;;;0.77;0.20;;;2.40;99.90;;;;;;5038362;28;20534;-76
2021/01/30 00:42:17;;;;;;;1.60;0.10;;;2.40;99.90;;;;;;5036576;28;20029;-76
2021/01/30 00:44:43;;;;;;;0.60;0.10;;;2.40;99.90;;;;;;5036522;28;20033;-76
2021/01/30 00:47:10;;;;;;;2.47;0.20;;;2.40;99.90;;;;;;5036227;28;20080;-76
2021/01/30 00:49:40;;;;;;;3.53;0.22;;;2.40;99.90;;;;;;5037430;28;20025;-76
2021/01/30 00:52:06;;;;;;;1.20;0.60;;;2.30;99.90;;;;;;5038901;28;20029;-76
2021/01/30 00:54:31;;;;;;;2.08;0.60;;;2.40;99.90;;;;;;5037482;28;20029;-76
2021/01/30 00:56:57;;;;;;;1.05;0.40;;;2.40;99.90;;;;;;5037673;28;20435;-76
2021/01/30 00:59:24;;;;;;;1.48;0.63;;;2.30;99.90;;;;;;5036381;28;20033;-76
2021/01/30 01:01:50;;;;;;;1.85;0.35;;;2.30;99.90;;;;;;5037532;28;20079;-76
2021/01/30 01:04:17;;;;;;;3.78;0.60;;;2.20;99.90;;;;;;5037330;28;20109;-76
2021/01/30 01:06:42;;;;;;;1.80;1.15;;;2.20;99.90;;;;;;5036296;28;20033;-76
2021/01/30 01:09:09;;;;;;;2.97;0.80;;;2.20;99.90;;;;;;5036899;28;20021;-76
2021/01/30 01:11:36;;;;;;;1.10;1.00;;;2.20;99.90;;;;;;5037222;28;20541;-76
2021/01/30 01:14:03;;;;;;;1.67;0.77;;;2.20;99.90;;;;;;5036057;28;20079;-76
2021/01/30 01:16:28;;;;;;;1.80;1.20;;;2.10;99.90;;;;;;5036867;28;20376;-76
2021/01/30 01:18:54;;;;;;;2.22;1.60;;;2.10;99.90;;;;;;5037049;28;20075;-76
2021/01/30 01:21:20;;;;;;;2.25;1.40;;;2.10;99.90;;;;;;5037685;28;20029;-76
2021/01/30 01:23:45;;;;;;;2.03;1.50;;;2.00;99.90;;;;;;5035894;28;20057;-76
2021/01/30 01:26:12;;;;;;;2.35;1.20;;;2.00;99.90;;;;;;5037436;28;20029;-76
2021/01/30 01:28:38;;;;;;;1.95;1.30;;;1.90;99.90;;;;;;5035840;28;20022;-76
2021/01/30 01:31:05;;;;;;;2.05;1.27;;;1.90;99.90;;;;;;5037149;28;20480;-77
2021/01/30 01:33:31;;;;;;;3.63;1.75;;;1.90;99.90;;;;;;5037023;28;20021;-76
2021/01/30 01:35:57;;;;;;;2.83;1.45;;;1.80;99.90;;;;;;5035485;28;20391;-77
2021/01/30 01:38:23;;;;;;;1.83;1.23;;;1.80;99.90;;;;;;5037016;28;20025;-77
2021/01/30 01:40:48;;;;;;;1.85;1.17;;;1.80;99.90;;;;;;5035068;28;20021;-76
2021/01/30 01:43:17;;;;;;;3.72;2.13;;;1.80;99.90;;;;;;5035197;28;20144;-76
2021/01/30 01:46:05;;;;;;;2.15;1.30;;;1.80;99.90;;;;;;5036819;28;20060;-76
2021/01/30 01:48:32;;;;;;;2.13;1.42;;;1.80;99.90;;;;;;5036320;28;20034;-76
2021/01/30 01:51:02;;;;;;;2.85;1.02;;;1.80;99.90;;;;;;5036787;28;20483;-76
2021/01/30 01:53:31;;;;;;;3.63;1.70;;;1.80;99.90;;;;;;5036503;28;20049;-76
2021/01/30 01:56:02;;;;;;;3.70;1.80;;;1.70;99.90;;;;;;5035211;28;20022;-76
2021/01/30 01:58:31;;;;;;;3.95;1.98;;;1.70;99.90;;;;;;5036437;28;20468;-76
2021/01/30 02:00:57;;;;;;;1.88;1.23;;;1.70;99.90;;;;;;5036766;28;20022;-76
2021/01/30 02:03:24;;;;;;;3.17;2.00;;;1.70;99.90;;;;;;5036228;28;20030;-76
2021/01/30 02:05:49;;;;;;;3.33;1.88;;;1.70;99.90;;;;;;5036044;28;20387;-76
2021/01/30 02:08:18;;;;;;;2.20;1.52;;;1.70;99.90;;;;;;5036913;28;20029;-76
2021/01/30 02:10:46;;;;;;;2.42;1.58;;;1.70;99.90;;;;;;5035101;28;20045;-76
2021/01/30 02:13:18;;;;;;;2.75;2.05;;;1.70;99.90;;;;;;5034829;28;20033;-75
2021/01/30 02:15:46;;;;;;;3.60;2.10;;;1.80;99.90;;;;;;5036495;28;20369;-76
2021/01/30 02:18:27;;;;;;;2.50;1.75;;;1.80;99.90;;;;;;5034896;28;20551;-76
2021/01/30 02:21:04;;;;;;;2.88;1.63;;;1.80;99.90;;;;;;5036108;28;20037;-76
2021/01/30 02:24:00;;;;;;;5.30;1.88;;;1.70;99.90;;;;;;5036660;28;20484;-76
2021/01/30 02:26:50;;;;;;;3.15;1.65;;;1.70;99.90;;;;;;5036475;28;20104;-76
2021/01/30 02:29:36;;;;;;;3.22;1.80;;;1.70;99.90;;;;;;5035944;28;20495;-76
2021/01/30 02:32:33;;;;;;;3.30;2.17;;;1.70;99.90;;;;;;5034548;28;20030;-76
2021/01/30 02:35:32;;;;;;;3.67;1.80;;;1.70;99.90;;;;;;5036274;28;20025;-76
2021/01/30 02:38:10;;;;;;;2.97;1.70;;;1.70;99.90;;;;;;5035733;28;20067;-76
2021/01/30 02:40:39;;;;;;;4.15;2.30;;;1.60;99.90;;;;;;5034464;28;20046;-76
2021/01/30 02:43:12;;;;;;;3.33;1.58;;;1.60;99.90;;;;;;5035382;28;20022;-76
2021/01/30 02:45:55;;;;;;;3.75;2.17;;;1.60;99.90;;;;;;5035368;28;20112;-76
2021/01/30 02:48:25;;;;;;;3.13;1.98;;;1.60;99.90;;;;;;5034370;28;20479;-76
2021/01/30 02:50:55;;;;;;;3.80;1.95;;;1.60;99.90;;;;;;5034148;28;20372;-76
2021/01/30 02:53:27;;;;;;;3.15;1.77;;;1.60;99.90;;;;;;5034044;28;20022;-76
2021/01/30 02:56:01;;;;;;;3.50;1.92;;;1.70;99.90;;;;;;5035020;28;20108;-76
2021/01/30 02:58:33;;;;;;;4.55;1.75;;;1.70;99.90;;;;;;5033778;28;20060;-76
2021/01/30 03:00:59;;;;;;;4.07;2.20;;;1.70;99.90;;;;;;5035404;28;20029;-76
2021/01/30 03:03:25;;;;;;;2.65;1.85;;;1.70;99.90;;;;;;5034962;28;20100;-76
2021/01/30 03:05:54;;;;;;;3.22;2.08;;;1.70;99.90;;;;;;5035631;28;20479;-76
2021/01/30 03:08:44;;;;;;;5.55;2.67;;;1.70;99.90;;;;;;5033621;28;20021;-76
2021/01/30 03:11:19;;;;;;;4.28;2.78;;;1.70;99.90;;;;;;5033769;28;20033;-75
2021/01/30 03:13:57;;;;;;;5.93;2.75;;;1.70;99.90;;;;;;5035565;28;20159;-76
2021/01/30 03:16:26;;;;;;;2.58;1.83;;;1.70;99.90;;;;;;5036158;28;20053;-72
2021/01/30 03:19:02;;;;;;;4.05;2.00;;;1.70;99.90;;;;;;5033407;28;20523;-72
2021/01/30 03:21:30;;;;;;;3.00;1.67;;;1.70;99.90;;;;;;5035290;28;20069;-73
2021/01/30 03:23:57;;;;;;;3.45;1.75;;;1.70;99.90;;;;;;5034559;28;20479;-73
2021/01/30 03:26:26;;;;;;;4.57;2.13;;;1.70;99.90;;;;;;5033370;28;20025;-73
2021/01/30 03:28:54;;;;;;;3.05;1.77;;;1.70;99.90;;;;;;5034615;28;20451;-73
2021/01/30 03:31:20;;;;;;;3.00;1.70;;;1.60;99.90;;;;;;5034481;28;20052;-73
2021/01/30 03:33:45;;;;;;;2.70;1.55;;;1.60;99.90;;;;;;5033336;28;20017;-73
2021/01/30 03:36:11;;;;;;;3.45;1.50;;;1.60;99.90;;;;;;5032884;28;20372;-73
2021/01/30 03:38:36;;;;;;;3.53;1.92;;;1.60;99.90;;;;;;5033050;28;20475;-73
2021/01/30 03:41:03;;;;;;;4.72;1.80;;;1.60;99.90;;;;;;5034541;28;20116;-72
2021/01/30 03:43:29;;;;;;;4.10;2.10;;;1.50;99.90;;;;;;5034147;28;20029;-73
2021/01/30 03:45:54;;;;;;;4.90;1.98;;;1.50;99.90;;;;;;5033189;28;20116;-73
2021/01/30 03:48:20;;;;;;;4.30;2.50;;;1.50;99.90;;;;;;5034249;28;20032;-73
2021/01/30 03:50:46;;;;;;;2.83;2.05;;;1.50;99.90;;;;;;5033109;28;20387;-73
2021/01/30 03:53:12;;;;;;;4.18;2.38;;;1.50;99.90;;;;;;5033106;28;20024;-73
2021/01/30 03:55:38;;;;;;;3.05;1.90;;;1.50;99.90;;;;;;5033373;28;20105;-73
2021/01/30 03:58:05;;;;;;;3.33;1.60;;;1.50;99.90;;;;;;5034019;28;20434;-73
2021/01/30 04:00:30;;;;;;;2.45;1.30;;;1.50;99.90;;;;;;5032382;28;20030;-73
2021/01/30 04:02:56;;;;;;;2.35;1.20;;;1.50;99.90;;;;;;5032876;28;20021;-73
2021/01/30 04:05:25;;;;;;;1.70;0.95;;;1.40;99.90;;;;;;5034609;28;20154;-73
2021/01/30 04:07:52;;;;;;;1.80;1.10;;;1.40;99.90;;;;;;5034065;28;20053;-73
2021/01/30 04:10:22;;;;;;;3.33;1.27;;;1.30;99.90;;;;;;5034150;28;20104;-73
2021/01/30 04:12:48;;;;;;;2.58;1.13;;;1.20;99.90;;;;;;5034013;28;20025;-73
2021/01/30 04:15:17;;;;;;;2.47;1.08;;;1.20;99.90;;;;;;5034491;28;20026;-73
2021/01/30 04:17:42;;;;;;;1.48;0.77;;;1.20;99.90;;;;;;5033911;28;20395;-73
2021/01/30 04:20:10;;;;;;;1.17;0.60;;;1.10;99.90;;;;;;5034464;28;20022;-73
2021/01/30 04:22:36;;;;;;;0.68;0.38;;;1.00;99.90;;;;;;5033941;28;20491;-73
2021/01/30 04:25:03;;;;;;;2.30;0.80;;;1.10;99.90;;;;;;5034620;28;20217;-72
2021/01/30 04:27:29;;;;;;;2.92;0.45;;;1.00;99.90;;;;;;5034255;28;20022;-73
2021/01/30 04:29:54;;;;;;;1.52;0.55;;;1.00;99.90;;;;;;5033914;28;20593;-73
2021/01/30 04:32:20;;;;;;;1.95;0.40;;;0.90;99.90;;;;;;5032499;28;20025;-73
2021/01/30 04:34:46;;;;;;;1.15;0.70;;;0.90;99.90;;;;;;5032634;28;20053;-73
2021/01/30 04:37:12;;;;;;;0.75;0.40;;;0.80;99.90;;;;;;5032966;28;20072;-73
2021/01/30 04:39:38;;;;;;;0.80;0.45;;;0.80;99.90;;;;;;5034358;28;20022;-73
2021/01/30 04:42:11;;;;;;;1.27;0.30;;;0.70;99.90;;;;;;5033685;28;20021;-73
2021/01/30 04:44:47;;;;;;;2.03;0.60;;;0.70;99.90;;;;;;5033074;28;20022;-73
2021/01/30 04:47:34;;;;;;;1.45;0.75;;;0.70;99.90;;;;;;5032415;28;20044;-73
2021/01/30 04:50:11;;;;;;;2.05;0.63;;;0.60;99.90;;;;;;5032193;28;20026;-73
2021/01/30 04:52:53;;;;;;;1.75;0.90;;;0.60;99.90;;;;;;5033616;28;20021;-73
2021/01/30 04:55:30;;;;;;;2.65;0.60;;;0.60;99.90;;;;;;5033913;28;20068;-73
2021/01/30 04:58:16;;;;;;;2.42;0.77;;;0.50;99.90;;;;;;5032649;28;20096;-73
2021/01/30 05:01:11;;;;;;;1.67;0.57;;;0.50;99.90;;;;;;5034158;28;20021;-73
2021/01/30 05:03:49;;;;;;;1.38;0.50;;;0.50;99.90;;;;;;5034171;28;20025;-73
2021/01/30 05:06:40;;;;;;;1.52;0.57;;;0.50;99.90;;;;;;5033719;28;20026;-73
2021/01/30 05:09:13;;;;;;;2.65;0.80;;;0.40;99.90;;;;;;5037143;28;20081;-73
2021/01/30 05:11:43;;;;;;;2.63;0.90;;;0.40;99.90;;;;;;5036378;28;20021;-73
2021/01/30 05:14:19;;;;;;;4.65;1.23;;;0.40;99.90;;;;;;5036079;28;20468;-73
2021/01/30 05:16:54;;;;;;;4.25;0.85;;;0.40;99.90;;;;;;5036360;28;20021;-73
2021/01/30 05:19:21;;;;;;;1.63;0.80;;;0.40;99.90;;;;;;5037585;28;20412;-73
2021/01/30 05:21:52;;;;;;;2.42;0.70;;;0.40;99.90;;;;;;5037265;28;20030;-73
2021/01/30 05:24:19;;;;;;;2.10;0.75;;;0.30;99.90;;;;;;5036996;28;20029;-73
2021/01/30 05:27:05;;;;;;;1.42;0.55;;;0.20;99.90;;;;;;5035729;28;20032;-73
2021/01/30 05:29:47;;;;;;;3.38;0.90;;;0.20;99.90;;;;;;5037462;28;20432;-73
2021/01/30 05:32:53;;;;;;;1.92;0.75;;;0.20;99.90;;;;;;5035850;28;20116;-73
2021/01/30 05:35:26;;;;;;;2.25;0.45;;;0.20;99.90;;;;;;5024543;28;20037;-73
2021/01/30 05:37:58;;;;;;;1.85;0.73;;;0.20;99.90;;;;;;5035872;28;20032;-73
2021/01/30 05:40:44;;;;;;;2.53;0.80;;;0.30;99.90;;;;;;5035590;28;20018;-73
2021/01/30 05:43:34;;;;;;;3.00;0.93;;;0.20;99.90;;;;;;5036573;28;20442;-73
2021/01/30 05:46:01;;;;;;;3.55;1.05;;;0.20;99.90;;;;;;5035533;28;20022;-73
2021/01/30 05:48:35;;;;;;;2.60;0.68;;;0.20;99.90;;;;;;5035412;28;20033;-73
2021/01/30 05:51:35;;;;;;;2.30;0.63;;;0.20;99.90;;;;;;5036867;28;20060;-73
2021/01/30 05:54:00;;;;;;;2.35;0.50;;;0.20;99.90;;;;;;5036780;28;20550;-73
2021/01/30 05:56:36;;;;;;;2.38;0.82;;;0.30;99.90;;;;;;5035390;28;20045;-73
2021/01/30 05:59:01;;;;;;;2.10;0.80;;;0.30;99.90;;;;;;5036691;28;20018;-73
2021/01/30 06:01:29;;;;;;;2.78;0.77;;;0.30;99.90;;;;;;5036680;28;20041;-73
2021/01/30 06:03:59;;;;;;;2.22;0.50;;;0.30;99.90;;;;;;5035985;28;20021;-73
2021/01/30 06:06:38;;;;;;;2.13;0.50;;;0.40;99.90;;;;;;5035973;28;20025;-73
2021/01/30 06:09:07;;;;;;;2.83;0.40;;;0.40;99.90;;;;;;5034528;28;20207;-73
2021/01/30 06:11:43;;;;;;;1.77;0.50;;;0.50;99.90;;;;;;5036011;28;20101;-73
2021/01/30 06:14:12;;;;;;;2.25;0.85;;;0.40;99.90;;;;;;5034440;28;20038;-73
2021/01/30 06:16:47;;;;;;;3.03;0.88;;;0.40;99.90;;;;;;5034624;28;20468;-73
2021/01/30 06:19:17;;;;;;;2.90;0.63;;;0.40;99.90;;;;;;5034591;28;20025;-73
2021/01/30 06:21:45;;;;;;;1.90;0.82;;;0.40;99.90;;;;;;5034157;28;20021;-73
2021/01/30 06:24:24;;;;;;;2.35;0.70;;;0.50;99.90;;;;;;5034243;28;20550;-73
2021/01/30 06:26:50;;;;;;;2.92;0.90;;;0.50;99.90;;;;;;5034165;28;20053;-73
2021/01/30 06:29:42;;;;;;;2.13;0.82;;;0.50;99.90;;;;;;5035703;28;20432;-73
2021/01/30 06:32:25;;;;;;;2.60;1.02;;;0.60;99.90;;;;;;5035652;28;20416;-73
2021/01/30 06:35:13;;;;;;;3.25;1.23;;;0.60;99.90;;;;;;5034338;28;20120;-73
2021/01/30 06:37:48;;;;;;;2.95;1.00;;;0.60;99.90;;;;;;5033449;28;20400;-73
2021/01/30 06:40:24;;;;;;;2.15;0.77;;;0.70;99.90;;;;;;5035385;28;20021;-73
2021/01/30 06:42:53;;;;;;;3.28;0.90;;;0.70;99.90;;;;;;5035533;28;20026;-73
2021/01/30 06:45:35;;;;;;;1.48;0.73;;;0.70;99.90;;;;;;5034408;28;20022;-73
2021/01/30 06:48:02;;;;;;;4.60;1.10;;;0.80;99.90;;;;;;5035613;28;20026;-73
2021/01/30 06:50:39;;;;;;;2.13;0.73;;;0.80;99.90;;;;;;5034822;28;20086;-73
2021/01/30 06:53:37;;;;;;;2.25;0.57;;;0.80;99.90;;;;;;5034377;28;20025;-73
2021/01/30 06:56:11;;;;;;;;;;;0.80;99.90;;;;;;5034777;28;20073;-73
2021/01/30 06:58:39;;;;;;;2.83;1.00;;;0.80;99.90;;;;;;5035796;28;19905;-72
2021/01/30 07:01:17;;;;;;;2.20;0.90;;;0.80;99.90;;;;;;5033861;28;20029;-73
2021/01/30 07:04:07;;;;;;;1.80;0.70;;;0.80;99.90;;;;;;5035871;28;20061;-72
2021/01/30 07:07:01;;;;;;;4.72;1.17;;;0.90;99.90;;;;;;5034569;28;20035;-72
2021/01/30 07:09:37;;;;;;;2.58;1.00;;;0.90;99.90;;;;;;5034992;28;20032;-72
2021/01/30 07:12:20;;;;;;;2.78;0.98;;;0.90;99.90;;;;;;5034926;28;20033;-73
2021/01/30 07:15:08;;;;;;;3.65;1.65;;;1.00;99.90;;;;;;5034991;28;20104;-73
2021/01/30 07:18:00;;;;;;;2.50;1.15;;;0.90;99.90;;;;;;5015281;28;20084;-72
2021/01/30 07:21:00;;;;;;;1.67;0.65;;;0.90;99.90;;;;;;5015396;28;20026;-72
2021/01/30 07:24:02;;;;;;;1.83;0.52;;;0.90;99.90;;;;;;5014079;28;20022;-73
2021/01/30 07:26:34;;;;;;;2.22;0.73;;;0.90;99.90;;;;;;5013837;28;20040;-73
2021/01/30 07:29:13;;;;;;;2.58;0.80;;;0.90;99.90;;;;;;5015911;28;20022;-72
2021/01/30 07:31:41;;;;;;;2.35;0.85;;;0.90;99.90;;;;;;5033556;28;20018;-72
2021/01/30 07:34:22;;;;;;;2.03;0.52;;;0.90;99.90;;;;;;5033734;28;20025;-72
2021/01/30 07:39:52;;;;;;;2.00;0.70;;;1.00;99.90;;;;;;5053650;28;20048;-73
2021/01/30 07:42:41;;;;;;;2.90;0.98;;;1.00;99.90;;;;;;5037025;28;20413;-73
2021/01/30 07:45:19;;;;;;;2.08;0.88;;;1.00;99.90;;;;;;5041594;28;20090;-73
2021/01/30 07:48:09;;;;;;;2.33;0.80;;;1.00;99.90;;;;;;5033229;28;20471;-73
2021/01/30 07:50:38;;;;;;;2.35;0.45;;;1.00;99.90;;;;;;5016764;28;20056;-73
2021/01/30 07:53:15;;;;;;;;;;;1.00;99.90;;;;;;5034818;28;20030;-73
2021/01/30 07:56:12;;;;;;;4.20;1.05;;;1.10;99.90;;;;;;5035010;28;19905;-73
2021/01/30 07:58:58;;;;;;;1.88;0.57;;;1.10;99.90;;;;;;5016827;28;20047;-73
2021/01/30 08:01:49;;;;;;;1.65;0.70;;;1.10;99.90;;;;;;5016307;28;20391;-73
2021/01/30 08:04:21;;;;;;;3.10;0.82;;;1.10;99.90;;;;;;4990994;28;20128;-76
2021/01/30 08:06:47;;;;;;;3.45;1.02;;;1.10;99.90;;;;;;5034736;28;20032;-76
2021/01/30 08:09:34;;;;;;;1.73;0.70;;;1.10;99.90;;;;;;5034117;28;20029;-76
2021/01/30 08:12:23;;;;;;;3.25;0.82;;;1.20;99.90;;;;;;5034189;28;20018;-76
2021/01/30 08:14:57;;;;;;;2.50;0.75;;;1.20;99.90;;;;;;5034626;28;20041;-75
2021/01/30 08:17:39;;;;;;;2.25;0.82;;;1.10;99.90;;;;;;5016787;28;20029;-75
2021/01/30 08:20:14;;;;;;;2.50;0.82;;;1.10;99.90;;;;;;5016538;28;20030;-76
2021/01/30 08:23:18;;;;;;;3.53;0.98;;;1.10;99.90;;;;;;5034512;28;20017;-76
2021/01/30 08:25:47;;;;;;;2.63;0.95;;;1.10;99.90;;;;;;5033634;28;20095;-75
2021/01/30 08:28:21;;;;;;;2.00;0.70;;;1.10;99.90;;;;;;5033892;28;20056;-76
2021/01/30 08:30:52;;;;;;;2.78;0.82;;;1.20;99.90;;;;;;5015890;28;20018;-76
2021/01/30 08:33:18;;;;;;;4.05;1.23;;;1.20;99.90;;;;;;5034008;28;20014;-76
2021/01/30 08:35:49;;;;;;;3.40;1.40;;;1.30;99.90;;;;;;5033756;28;20025;-76
2021/01/30 08:38:17;;;;;;;2.83;0.73;;;1.30;99.90;;;;;;5033891;28;20033;-76
2021/01/30 08:40:43;;;;;;;1.83;0.70;;;1.30;99.90;;;;;;5015661;28;20055;-76
2021/01/30 08:43:32;;;;;;;3.42;1.27;;;1.40;99.90;;;;;;5019167;28;20061;-76
2021/01/30 08:46:34;;;;;;;3.67;1.65;;;1.40;99.90;;;;;;5023485;28;20033;-76
2021/01/30 08:49:15;;;;;;;3.45;1.20;;;1.50;99.90;;;;;;5038627;28;20053;-76
2021/01/30 08:51:47;;;;;;;3.65;1.40;;;1.60;99.90;;;;;;5037582;28;20479;-76
2021/01/30 08:54:38;;;;;;;4.40;1.77;;;1.70;99.90;;;;;;5038130;28;20017;-76
2021/01/30 08:57:06;;;;;;;5.28;1.70;;;1.70;99.90;;;;;;5037890;28;20029;-76
2021/01/30 08:59:52;;;;;;;4.80;1.92;;;1.70;99.90;;;;;;5020118;28;20438;-76
2021/01/30 09:02:27;;;;;;;4.97;2.40;;;1.70;99.90;;;;;;5038090;28;20022;-77
2021/01/30 09:05:00;;;;;;;4.70;1.75;;;1.70;99.90;;;;;;5037877;28;20079;-76
2021/01/30 09:07:51;;;;;;;5.43;2.10;;;1.70;99.90;;;;;;5020188;28;20506;-75
2021/01/30 09:10:38;;;;;;;4.43;1.77;;;1.70;99.90;;;;;;5019510;28;20030;-76
2021/01/30 09:13:18;;;;;;;4.65;1.80;;;1.70;99.90;;;;;;5037570;28;20033;-76
2021/01/30 09:15:44;;;;;;;5.00;1.75;;;1.70;99.90;;;;;;5036884;28;20022;-74
2021/01/30 09:18:24;;;;;;;5.25;1.98;;;1.70;99.90;;;;;;5019004;28;20091;-75
2021/01/30 09:21:07;;;;;;;5.03;1.90;;;1.70;99.90;;;;;;5037698;28;20024;-75
2021/01/30 09:24:25;;;;;;;5.05;1.80;;;1.70;99.90;;;;;;5037647;28;20045;-75
2021/01/30 09:27:03;;;;;;;9.20;1.65;;;1.70;99.90;;;;;;4993887;28;20057;-74
2021/01/30 09:29:41;;;;;;;8.05;2.03;;;1.80;99.90;;;;;;5018652;28;20040;-76
2021/01/30 09:32:09;;;;;;;8.10;2.00;;;1.80;99.90;;;;;;5017376;28;20022;-74
2021/01/30 09:34:55;;;;;;;6.60;2.20;;;1.90;99.90;;;;;;4999892;28;20029;-76
2021/01/30 09:37:40;;;;;;;3.88;1.48;;;2.00;99.90;;;;;;5017021;28;20108;-76
2021/01/30 09:40:19;;;;;;;5.82;1.67;;;2.00;99.90;;;;;;4999737;28;20506;-76
2021/01/30 09:42:56;;;;;;;5.55;2.15;;;2.00;99.90;;;;;;5032155;28;20022;-76
2021/01/30 09:45:22;;;;;;;6.38;1.80;;;2.00;99.90;;;;;;5019072;28;20033;-76
2021/01/30 09:47:49;;;;;;;4.03;1.13;;;2.10;99.90;;;;;;5019162;28;20030;-74
2021/01/30 09:50:21;;;;;;;2.45;1.05;;;2.10;99.90;;;;;;5019091;28;20067;-74
2021/01/30 09:52:53;;;;;;;4.63;1.35;;;2.10;99.90;;;;;;5035539;28;20021;-74
2021/01/30 09:55:21;;;;;;;3.97;1.05;;;2.10;99.90;;;;;;5035925;28;20072;-74
2021/01/30 09:57:47;;;;;;;4.65;1.45;;;2.10;99.90;;;;;;5030225;28;20026;-74
2021/01/30 10:00:17;;;;;;;3.97;1.52;;;2.20;99.90;;;;;;4999241;28;20439;-74
2021/01/30 10:02:43;;;;;;;3.60;1.40;;;2.30;99.90;;;;;;5016680;28;20026;-74
2021/01/30 10:05:15;;;;;;;4.65;0.90;;;2.30;99.90;;;;;;5017234;28;20048;-74
2021/01/30 10:07:42;;;;;;;3.15;1.00;;;2.40;99.90;;;;;;5036069;28;20029;-74
2021/01/30 10:10:24;;;;;;;2.97;1.23;;;2.50;99.90;;;;;;5036105;28;20029;-74
2021/01/30 10:12:51;;;;;;;4.38;1.08;;;2.50;99.90;;;;;;5018821;28;20029;-74
2021/01/30 10:15:29;;;;;;;3.90;1.60;;;2.40;99.00;;;;;;5036101;28;20113;-74
2021/01/30 10:18:07;;;;;;;4.47;1.45;;;2.50;99.80;;;;;;5035497;28;20060;-75
2021/01/30 10:20:59;;;;;;;6.22;0.80;;;2.60;99.50;;;;;;5036202;28;20045;-77
2021/01/30 10:23:35;;;;;;;5.55;1.40;;;2.60;99.60;;;;;;5033183;28;20025;-76
2021/01/30 10:26:14;;;;;;;2.45;0.93;;;2.60;97.90;;;;;;5035002;28;20022;-73
2021/01/30 10:29:11;;;;;;;4.20;1.25;;;2.80;97.90;;;;;;5018235;28;20075;-74
2021/01/30 10:31:54;;;;;;;3.17;1.38;;;2.80;97.10;;;;;;5036107;28;20022;-73
2021/01/30 10:34:23;;;;;;;4.03;0.80;;;2.80;97.60;;;;;;5018220;28;20029;-73
2021/01/30 10:36:54;;;;;;;3.05;1.02;;;2.80;97.20;;;;;;5035139;28;20028;-73
2021/01/30 10:39:23;;;;;;;2.47;0.80;;;2.80;97.40;;;;;;5010791;28;20407;-73
2021/01/30 10:41:50;;;;;;;4.20;1.38;;;2.80;97.00;;;;;;4998236;28;20026;-76
2021/01/30 10:44:26;;;;;;;3.95;1.20;;;2.90;96.90;;;;;;5016060;28;20036;-73
2021/01/30 10:47:01;;;;;;;2.60;0.98;;;2.90;96.50;;;;;;5016378;28;20559;-76
2021/01/30 10:49:36;;;;;;;3.80;1.30;;;2.80;95.70;;;;;;5023302;28;20021;-75
2021/01/30 10:52:26;;;;;;;3.20;1.10;;;2.80;96.80;;;;;;5018126;28;20026;-76
2021/01/30 10:54:51;;;;;;;3.20;0.77;;;2.80;97.10;;;;;;5012488;28;20030;-76
2021/01/30 10:57:20;;;;;;;2.83;1.02;;;2.80;97.10;;;;;;4998069;28;20381;-74
2021/01/30 10:59:54;;;;;;;2.60;0.70;;;5.20;96.30;;;;;;5016670;28;20029;-76
2021/01/30 11:02:21;;;;;;;2.88;0.57;;;2.90;95.30;;;;;;4998080;28;20064;-74
2021/01/30 11:05:11;;;;;;;1.75;0.80;;;2.90;96.20;;;;;;4997242;28;20075;-73
2021/01/30 11:08:00;;;;;;;2.40;0.95;;;3.00;95.80;;;;;;5026068;28;20029;-74
2021/01/30 11:10:28;;;;;;;1.23;0.22;;;3.10;96.10;;;;;;5038678;28;20033;-73
2021/01/30 11:13:26;;;;;;;3.07;1.23;;;3.10;94.20;;;;;;5039098;28;20100;-77
2021/01/30 11:16:10;;;;;;;3.80;0.80;;;3.20;93.80;;;;;;5039594;28;20097;-75
2021/01/30 11:18:52;;;;;;;3.78;0.90;;;3.20;92.60;;;;;;5012501;28;20025;-77
2021/01/30 11:21:37;;;;;;;3.45;1.05;;;3.20;93.00;;;;;;5020229;28;20026;-74
2021/01/30 11:24:46;;;;;;;1.65;0.68;;;3.20;93.00;;;;;;5019744;28;20029;-76
2021/01/30 11:27:34;;;;;;;2.33;0.77;;;3.20;92.70;;;;;;5018879;28;20034;-76
2021/01/30 11:30:18;;;;;;;3.72;0.60;;;3.30;92.90;;;;;;5006395;28;20029;-76
2021/01/30 11:32:51;;;;;;;2.22;0.93;;;3.30;93.10;;;;;;5008399;28;20033;-74
2021/01/30 11:35:35;;;;;;;1.15;0.60;;;3.30;93.50;;;;;;5022216;28;20052;-74
2021/01/30 11:38:05;;;;;;;2.38;0.68;;;3.40;92.90;;;;;;5019664;28;20032;-74
2021/01/30 11:40:32;;;;;;;4.03;1.20;;;3.40;91.80;;;;;;5020022;28;20048;-74
2021/01/30 11:42:57;;;;;;;2.03;0.65;;;3.40;92.30;;;;;;5036816;28;20017;-76
2021/01/30 11:45:23;;;;;;;1.80;0.80;;;3.30;92.30;;;;;;5021964;28;20468;-76
2021/01/30 11:47:50;;;;;;;2.88;0.82;;;3.30;91.80;;;;;;5020555;28;20026;-75
2021/01/30 11:50:16;;;;;;;2.90;1.00;;;3.30;92.20;;;;;;5019978;28;20116;-75
2021/01/30 11:52:43;;;;;;;1.65;0.77;;;3.30;92.20;;;;;;5037639;28;20178;-73
2021/01/30 11:55:09;;;;;;;2.78;1.00;;;3.30;92.10;;;;;;5038254;28;20028;-76
2021/01/30 11:57:35;;;;;;;2.75;1.00;;;3.20;92.20;;;;;;5019226;28;20060;-75
2021/01/30 12:00:01;;;;;;;1.83;0.85;;;3.30;93.10;;;;;;5018814;28;20399;-74
2021/01/30 12:02:27;;;;;;;3.15;1.15;;;3.40;93.10;;;;;;5020462;28;20028;-77
2021/01/30 12:04:55;;;;;;;3.05;1.13;;;3.40;93.40;;;;;;5019528;28;20037;-75
2021/01/30 12:07:21;;;;;;;3.80;1.00;;;3.40;92.80;;;;;;5004359;28;20030;-74
2021/01/30 12:09:46;;;;;;;2.55;1.02;;;3.50;92.40;;;;;;4997713;28;20025;-75
2021/01/30 12:12:12;;;;;;;2.33;0.93;;;3.50;92.30;;;;;;5000255;28;20041;-74
2021/01/30 12:14:38;;;;;;;2.92;0.77;;;3.60;92.70;;;;;;4999979;28;20025;-73
2021/01/30 12:17:04;;;;;;;1.23;0.68;;;3.70;92.10;;;;;;5018665;28;20472;-75
2021/01/30 12:19:36;;;;;;;3.53;0.95;;;3.70;92.40;;;;;;5006865;28;20048;-73
2021/01/30 12:22:02;;;;;;;4.47;0.70;;;3.80;92.20;;;;;;5018486;28;20499;-75
2021/01/30 12:24:27;;;;;;;4.13;1.25;;;3.80;91.90;;;;;;5035993;28;20084;-74
2021/01/30 12:26:53;;;;;;;1.85;0.90;;;3.80;91.80;;;;;;5019534;28;20056;-74
2021/01/30 12:29:19;;;;;;;2.95;1.00;;;3.90;91.10;;;;;;5020448;28;20120;-74
2021/01/30 12:31:45;;;;;;;2.45;0.80;;;3.90;90.20;;;;;;5036940;28;20022;-77
2021/01/30 12:34:10;;;;;;;2.25;1.23;;;3.90;90.20;;;;;;5017101;28;20361;-75
2021/01/30 12:36:37;;;;;;;2.08;0.80;;;3.90;90.30;;;;;;5024970;28;20026;-75
2021/01/30 12:39:05;;;;;;;2.88;0.68;;;3.90;89.20;;;;;;5001775;28;20124;-74
2021/01/30 12:41:30;;;;;;;2.28;0.82;;;3.90;90.40;;;;;;4999170;28;20393;-74
2021/01/30 12:43:56;;;;;;;2.67;0.98;;;4.00;90.40;;;;;;5016999;28;20032;-74
2021/01/30 12:46:22;;;;;;;1.88;0.80;;;4.00;91.10;;;;;;4999880;28;20033;-74
2021/01/30 12:48:47;;;;;;;2.20;1.02;;;4.00;90.80;;;;;;5016133;28;20040;-74
2021/01/30 12:51:14;;;;;;;6.22;1.90;;;4.00;91.10;;;;;;5027142;28;20033;-76
2021/01/30 12:53:43;;;;;;;3.42;1.42;;;4.00;90.60;;;;;;5032138;28;20472;-74
2021/01/30 12:56:09;;;;;;;4.78;1.20;;;4.00;90.90;;;;;;5018213;28;20503;-75
2021/01/30 12:58:36;;;;;;;4.53;2.05;;;4.00;91.20;;;;;;5017325;28;20026;-73
2021/01/30 13:01:01;;;;;;;3.47;1.27;;;4.00;91.20;;;;;;4997854;28;20037;-76
2021/01/30 13:03:28;;;;;;;3.85;1.20;;;4.00;91.10;;;;;;5031832;28;20030;-76
2021/01/30 13:05:54;;;;;;;3.13;1.20;;;3.90;91.10;;;;;;5034916;22;20033;-75
2021/01/30 13:08:23;;;;;;;2.50;0.85;;;4.20;91.10;;;;;;5019927;28;20550;-77
2021/01/30 13:10:50;;;;;;;1.88;0.82;;;3.80;90.90;;;;;;5046980;28;20071;-75
2021/01/30 13:13:16;;;;;;;3.35;1.20;;;3.70;91.60;;;;;;5023185;28;20032;-75
2021/01/30 13:15:44;;;;;;;3.78;1.80;;;3.70;91.50;;;;;;5038940;28;20021;-74
2021/01/30 13:18:10;;;;;;;4.23;1.60;;;3.70;92.30;;;;;;5039797;28;20025;-74
2021/01/30 13:20:42;;;;;;;6.40;2.47;;;3.60;91.50;;;;;;5040114;28;20359;-75
2021/01/30 13:23:08;;;;;;;3.97;1.60;;;3.60;91.80;;;;;;5038776;28;20029;-73
2021/01/30 13:25:34;;;;;;;3.22;1.30;;;3.60;91.90;;;;;;5019816;28;20028;-76
2021/01/30 13:27:59;;;;;;;3.67;1.55;;;3.50;91.40;;;;;;5021083;28;20025;-76
2021/01/30 13:30:28;;;;;;;4.30;2.00;;;3.50;92.40;;;;;;5041247;28;20026;-74
2021/01/30 13:32:55;;;;;;;;;;;3.40;92.50;;;;;;5024744;28;20419;-76